sensor_id;sensor_type;location;lat;lon;timestamp;P1;P2;P0
62599;PMS7003;48671;48.922;2.346;2023-11-21T00:01:06;13.33;8.33;6.00
62599;PMS7003;48671;48.922;2.346;2023-11-21T00:03:33;10.50;7.25;5.50
62599;PMS7003;48671;48.922;2.346;2023-11-21T00:05:59;7.00;4.00;1.00
62599;PMS7003;48671;48.922;2.346;2023-11-21T00:08:25;11.00;8.00;6.00
62599;PMS7003;48671;48.922;2.346;2023-11-21T00:10:51;13.00;9.00;7.50
62599;PMS7003;48671;48.922;2.346;2023-11-21T00:13:16;10.25;9.25;7.00
62599;PMS7003;48671;48.922;2.346;2023-11-21T00:15:41;10.00;10.00;8.00
62599;PMS7003;48671;48.922;2.346;2023-11-21T00:18:07;13.50;9.00;6.75
62599;PMS7003;48671;48.922;2.346;2023-11-21T00:20:32;6.33;1.67;0.00
62599;PMS7003;48671;48.922;2.346;2023-11-21T00:22:57;11.00;9.00;6.33
62599;PMS7003;48671;48.922;2.346;2023-11-21T00:25:24;9.50;9.00;7.00
62599;PMS7003;48671;48.922;2.346;2023-11-21T00:27:49;14.25;9.50;8.25
62599;PMS7003;48671;48.922;2.346;2023-11-21T00:30:15;9.67;9.67;8.00
62599;PMS7003;48671;48.922;2.346;2023-11-21T00:32:40;12.25;11.00;8.00
62599;PMS7003;48671;48.922;2.346;2023-11-21T00:35:06;10.00;8.00;6.75
62599;PMS7003;48671;48.922;2.346;2023-11-21T00:37:32;9.25;9.25;7.25
62599;PMS7003;48671;48.922;2.346;2023-11-21T00:39:57;10.50;9.00;7.00
62599;PMS7003;48671;48.922;2.346;2023-11-21T00:42:23;14.25;8.00;6.00
62599;PMS7003;48671;48.922;2.346;2023-11-21T00:44:48;11.75;11.75;7.25
62599;PMS7003;48671;48.922;2.346;2023-11-21T00:47:14;9.25;7.25;4.50
62599;PMS7003;48671;48.922;2.346;2023-11-21T00:49:39;14.50;10.00;6.50
62599;PMS7003;48671;48.922;2.346;2023-11-21T00:52:04;8.00;7.00;6.00
62599;PMS7003;48671;48.922;2.346;2023-11-21T00:54:30;16.00;12.25;7.75
62599;PMS7003;48671;48.922;2.346;2023-11-21T00:56:55;20.00;12.75;8.00
62599;PMS7003;48671;48.922;2.346;2023-11-21T00:59:21;11.50;8.25;6.00
62599;PMS7003;48671;48.922;2.346;2023-11-21T01:01:48;9.75;9.75;7.00
62599;PMS7003;48671;48.922;2.346;2023-11-21T01:04:13;14.50;9.00;6.75
62599;PMS7003;48671;48.922;2.346;2023-11-21T01:06:38;8.00;8.00;6.00
62599;PMS7003;48671;48.922;2.346;2023-11-21T01:09:04;10.00;7.67;6.00
62599;PMS7003;48671;48.922;2.346;2023-11-21T01:11:35;7.75;7.50;6.25
62599;PMS7003;48671;48.922;2.346;2023-11-21T01:14:02;10.50;10.25;7.00
62599;PMS7003;48671;48.922;2.346;2023-11-21T01:16:29;11.50;8.75;6.25
62599;PMS7003;48671;48.922;2.346;2023-11-21T01:18:54;11.00;8.75;7.00
62599;PMS7003;48671;48.922;2.346;2023-11-21T01:21:20;10.75;7.25;5.75
62599;PMS7003;48671;48.922;2.346;2023-11-21T01:23:46;9.50;9.50;6.00
62599;PMS7003;48671;48.922;2.346;2023-11-21T01:26:12;13.25;9.50;7.00
62599;PMS7003;48671;48.922;2.346;2023-11-21T01:28:37;11.00;9.25;7.00
62599;PMS7003;48671;48.922;2.346;2023-11-21T01:31:03;12.67;7.00;5.00
62599;PMS7003;48671;48.922;2.346;2023-11-21T01:33:28;9.25;7.00;5.00
62599;PMS7003;48671;48.922;2.346;2023-11-21T01:35:54;12.25;12.25;9.00
62599;PMS7003;48671;48.922;2.346;2023-11-21T01:38:19;11.00;10.25;8.00
62599;PMS7003;48671;48.922;2.346;2023-11-21T01:40:45;10.25;8.00;6.00
62599;PMS7003;48671;48.922;2.346;2023-11-21T01:43:10;12.00;11.50;7.00
62599;PMS7003;48671;48.922;2.346;2023-11-21T01:45:36;12.25;10.00;6.00
62599;PMS7003;48671;48.922;2.346;2023-11-21T01:48:02;12.00;10.33;7.00
62599;PMS7003;48671;48.922;2.346;2023-11-21T01:50:28;11.00;10.75;7.75
62599;PMS7003;48671;48.922;2.346;2023-11-21T01:52:54;12.00;10.25;7.00
62599;PMS7003;48671;48.922;2.346;2023-11-21T01:55:20;8.00;8.00;6.00
62599;PMS7003;48671;48.922;2.346;2023-11-21T01:57:46;13.50;11.75;6.50
62599;PMS7003;48671;48.922;2.346;2023-11-21T02:00:12;12.00;10.00;5.00
62599;PMS7003;48671;48.922;2.346;2023-11-21T02:02:42;11.00;7.75;6.25
62599;PMS7003;48671;48.922;2.346;2023-11-21T02:05:09;8.00;8.00;6.50
62599;PMS7003;48671;48.922;2.346;2023-11-21T02:07:35;13.50;8.00;5.00
62599;PMS7003;48671;48.922;2.346;2023-11-21T02:10:02;12.75;7.00;6.00
62599;PMS7003;48671;48.922;2.346;2023-11-21T02:12:29;11.00;9.25;7.00
62599;PMS7003;48671;48.922;2.346;2023-11-21T02:14:55;16.25;11.00;6.25
62599;PMS7003;48671;48.922;2.346;2023-11-21T02:17:20;8.00;8.00;6.50
62599;PMS7003;48671;48.922;2.346;2023-11-21T02:19:46;9.00;8.00;7.00
62599;PMS7003;48671;48.922;2.346;2023-11-21T02:22:12;13.00;11.00;8.00
62599;PMS7003;48671;48.922;2.346;2023-11-21T02:24:41;11.25;9.00;7.00
62599;PMS7003;48671;48.922;2.346;2023-11-21T02:27:07;11.25;8.00;7.00
62599;PMS7003;48671;48.922;2.346;2023-11-21T02:29:32;12.25;10.00;6.00
62599;PMS7003;48671;48.922;2.346;2023-11-21T02:31:58;13.50;11.00;7.75
62599;PMS7003;48671;48.922;2.346;2023-11-21T02:34:24;14.00;11.25;6.25
62599;PMS7003;48671;48.922;2.346;2023-11-21T02:36:50;8.00;8.00;5.00
62599;PMS7003;48671;48.922;2.346;2023-11-21T02:39:16;11.50;9.00;6.50
62599;PMS7003;48671;48.922;2.346;2023-11-21T02:41:42;12.00;8.25;4.25
62599;PMS7003;48671;48.922;2.346;2023-11-21T02:44:08;10.50;8.25;6.00
62599;PMS7003;48671;48.922;2.346;2023-11-21T02:46:33;11.75;7.00;5.75
62599;PMS7003;48671;48.922;2.346;2023-11-21T02:49:00;10.00;7.50;6.00
62599;PMS7003;48671;48.922;2.346;2023-11-21T02:51:26;8.75;6.00;5.75
62599;PMS7003;48671;48.922;2.346;2023-11-21T02:53:51;9.25;8.00;6.00
62599;PMS7003;48671;48.922;2.346;2023-11-21T02:56:17;9.25;7.00;6.00
62599;PMS7003;48671;48.922;2.346;2023-11-21T02:58:42;7.50;7.50;5.75
62599;PMS7003;48671;48.922;2.346;2023-11-21T03:01:11;8.00;6.50;4.25
62599;PMS7003;48671;48.922;2.346;2023-11-21T03:03:38;10.00;7.00;6.00
62599;PMS7003;48671;48.922;2.346;2023-11-21T03:06:05;11.00;8.25;7.00
62599;PMS7003;48671;48.922;2.346;2023-11-21T03:08:33;13.50;10.00;8.00
62599;PMS7003;48671;48.922;2.346;2023-11-21T03:10:59;11.50;7.25;6.00
62599;PMS7003;48671;48.922;2.346;2023-11-21T03:13:25;16.33;12.00;7.67
62599;PMS7003;48671;48.922;2.346;2023-11-21T03:15:50;9.00;7.00;6.00
62599;PMS7003;48671;48.922;2.346;2023-11-21T03:18:15;10.00;7.00;6.00
62599;PMS7003;48671;48.922;2.346;2023-11-21T03:20:41;10.00;10.00;7.00
62599;PMS7003;48671;48.922;2.346;2023-11-21T03:23:11;12.75;11.25;7.00
62599;PMS7003;48671;48.922;2.346;2023-11-21T03:25:36;13.00;7.50;6.00
62599;PMS7003;48671;48.922;2.346;2023-11-21T03:28:01;11.25;8.50;5.75
62599;PMS7003;48671;48.922;2.346;2023-11-21T03:30:28;13.25;8.75;7.50
62599;PMS7003;48671;48.922;2.346;2023-11-21T03:32:53;10.33;8.00;6.33
62599;PMS7003;48671;48.922;2.346;2023-11-21T03:35:18;12.25;7.75;6.00
62599;PMS7003;48671;48.922;2.346;2023-11-21T03:37:46;7.75;7.25;5.25
62599;PMS7003;48671;48.922;2.346;2023-11-21T03:40:11;12.50;11.25;6.75
62599;PMS7003;48671;48.922;2.346;2023-11-21T03:42:37;9.75;8.00;6.00
62599;PMS7003;48671;48.922;2.346;2023-11-21T03:45:03;7.75;7.75;6.00
62599;PMS7003;48671;48.922;2.346;2023-11-21T03:47:29;9.00;6.00;4.50
62599;PMS7003;48671;48.922;2.346;2023-11-21T03:49:55;13.75;8.50;6.75
62599;PMS7003;48671;48.922;2.346;2023-11-21T03:52:20;6.00;6.00;5.33
62599;PMS7003;48671;48.922;2.346;2023-11-21T03:54:46;11.50;8.50;6.50
62599;PMS7003;48671;48.922;2.346;2023-11-21T03:57:11;7.00;7.00;5.00
62599;PMS7003;48671;48.922;2.346;2023-11-21T03:59:39;10.25;7.00;6.00
62599;PMS7003;48671;48.922;2.346;2023-11-21T04:02:05;10.00;10.00;7.25
62599;PMS7003;48671;48.922;2.346;2023-11-21T04:04:30;9.33;8.67;6.00
62599;PMS7003;48671;48.922;2.346;2023-11-21T04:06:55;7.33;7.33;6.00
62599;PMS7003;48671;48.922;2.346;2023-11-21T04:09:21;8.00;7.50;6.75
62599;PMS7003;48671;48.922;2.346;2023-11-21T04:11:50;10.00;7.75;6.00
62599;PMS7003;48671;48.922;2.346;2023-11-21T04:14:15;8.00;7.00;6.00
62599;PMS7003;48671;48.922;2.346;2023-11-21T04:16:40;8.00;7.00;6.00
62599;PMS7003;48671;48.922;2.346;2023-11-21T04:19:06;12.00;7.00;6.00
62599;PMS7003;48671;48.922;2.346;2023-11-21T04:21:34;12.00;10.75;7.50
62599;PMS7003;48671;48.922;2.346;2023-11-21T04:23:59;10.50;8.50;6.25
62599;PMS7003;48671;48.922;2.346;2023-11-21T04:26:24;10.75;10.75;6.00
62599;PMS7003;48671;48.922;2.346;2023-11-21T04:28:50;8.67;6.67;5.33
62599;PMS7003;48671;48.922;2.346;2023-11-21T04:31:15;6.50;6.50;5.50
62599;PMS7003;48671;48.922;2.346;2023-11-21T04:33:40;7.33;7.00;6.00
62599;PMS7003;48671;48.922;2.346;2023-11-21T04:36:06;12.00;8.25;7.75
62599;PMS7003;48671;48.922;2.346;2023-11-21T04:38:31;12.00;8.75;6.75
62599;PMS7003;48671;48.922;2.346;2023-11-21T04:40:58;10.75;7.00;5.00
62599;PMS7003;48671;48.922;2.346;2023-11-21T04:43:23;8.00;8.00;6.75
62599;PMS7003;48671;48.922;2.346;2023-11-21T04:45:48;8.00;8.00;6.00
62599;PMS7003;48671;48.922;2.346;2023-11-21T04:48:14;8.25;7.00;5.00
62599;PMS7003;48671;48.922;2.346;2023-11-21T04:50:39;11.50;9.00;7.00
62599;PMS7003;48671;48.922;2.346;2023-11-21T04:53:04;7.00;5.25;3.50
62599;PMS7003;48671;48.922;2.346;2023-11-21T04:55:30;12.50;10.00;6.25
62599;PMS7003;48671;48.922;2.346;2023-11-21T04:57:55;15.50;8.75;7.00
62599;PMS7003;48671;48.922;2.346;2023-11-21T05:00:21;12.25;8.50;6.00
62599;PMS7003;48671;48.922;2.346;2023-11-21T05:02:46;13.75;8.50;6.25
62599;PMS7003;48671;48.922;2.346;2023-11-21T05:05:12;12.50;9.75;7.00
62599;PMS7003;48671;48.922;2.346;2023-11-21T05:07:38;11.00;11.00;7.00
62599;PMS7003;48671;48.922;2.346;2023-11-21T05:10:07;11.00;11.00;7.75
62599;PMS7003;48671;48.922;2.346;2023-11-21T05:12:36;12.00;11.00;7.00
62599;PMS7003;48671;48.922;2.346;2023-11-21T05:15:06;13.75;9.50;7.50
62599;PMS7003;48671;48.922;2.346;2023-11-21T05:17:35;13.00;7.25;4.75
62599;PMS7003;48671;48.922;2.346;2023-11-21T05:20:00;10.00;7.50;6.00
62599;PMS7003;48671;48.922;2.346;2023-11-21T05:22:28;15.75;11.00;7.00
62599;PMS7003;48671;48.922;2.346;2023-11-21T05:24:54;7.50;6.25;5.00
62599;PMS7003;48671;48.922;2.346;2023-11-21T05:27:19;12.00;12.00;7.67
62599;PMS7003;48671;48.922;2.346;2023-11-21T05:29:45;12.67;12.00;8.67
62599;PMS7003;48671;48.922;2.346;2023-11-21T05:32:10;14.67;11.00;6.33
62599;PMS7003;48671;48.922;2.346;2023-11-21T05:34:35;13.25;12.00;7.75
62599;PMS7003;48671;48.922;2.346;2023-11-21T05:37:00;13.67;12.33;7.67
62599;PMS7003;48671;48.922;2.346;2023-11-21T05:39:26;11.00;10.75;7.00
62599;PMS7003;48671;48.922;2.346;2023-11-21T05:41:52;11.25;8.50;6.25
62599;PMS7003;48671;48.922;2.346;2023-11-21T05:44:18;14.25;11.00;10.00
62599;PMS7003;48671;48.922;2.346;2023-11-21T05:46:44;14.50;11.50;7.75
62599;PMS7003;48671;48.922;2.346;2023-11-21T05:49:10;16.75;11.00;7.25
62599;PMS7003;48671;48.922;2.346;2023-11-21T05:51:36;12.25;8.50;6.25
62599;PMS7003;48671;48.922;2.346;2023-11-21T05:54:02;11.75;10.25;6.25
62599;PMS7003;48671;48.922;2.346;2023-11-21T05:56:28;16.50;10.25;7.00
62599;PMS7003;48671;48.922;2.346;2023-11-21T05:58:53;17.00;15.67;8.00
62599;PMS7003;48671;48.922;2.346;2023-11-21T06:01:18;8.67;8.00;5.33
62599;PMS7003;48671;48.922;2.346;2023-11-21T06:03:44;12.25;12.00;7.75
62599;PMS7003;48671;48.922;2.346;2023-11-21T06:06:10;12.00;10.75;7.75
62599;PMS7003;48671;48.922;2.346;2023-11-21T06:08:36;11.25;10.00;6.00
62599;PMS7003;48671;48.922;2.346;2023-11-21T06:11:01;15.25;13.25;8.00
62599;PMS7003;48671;48.922;2.346;2023-11-21T06:13:26;15.00;10.25;7.25
62599;PMS7003;48671;48.922;2.346;2023-11-21T06:15:52;10.50;10.00;7.00
62599;PMS7003;48671;48.922;2.346;2023-11-21T06:18:18;18.25;10.00;7.25
62599;PMS7003;48671;48.922;2.346;2023-11-21T06:20:46;15.25;11.75;8.00
62599;PMS7003;48671;48.922;2.346;2023-11-21T06:23:12;21.50;15.75;10.25
62599;PMS7003;48671;48.922;2.346;2023-11-21T06:25:37;9.25;9.25;7.25
62599;PMS7003;48671;48.922;2.346;2023-11-21T06:28:03;8.75;8.75;6.25
62599;PMS7003;48671;48.922;2.346;2023-11-21T06:30:28;17.00;13.00;8.00
62599;PMS7003;48671;48.922;2.346;2023-11-21T06:32:54;9.75;9.50;6.75
62599;PMS7003;48671;48.922;2.346;2023-11-21T06:35:20;17.50;11.50;7.25
62599;PMS7003;48671;48.922;2.346;2023-11-21T06:37:45;19.50;10.50;7.00
62599;PMS7003;48671;48.922;2.346;2023-11-21T06:40:12;15.25;12.50;10.00
62599;PMS7003;48671;48.922;2.346;2023-11-21T06:42:40;10.50;8.75;7.00
62599;PMS7003;48671;48.922;2.346;2023-11-21T06:45:06;13.25;11.25;7.25
62599;PMS7003;48671;48.922;2.346;2023-11-21T06:47:32;13.50;11.75;8.00
62599;PMS7003;48671;48.922;2.346;2023-11-21T06:49:58;12.75;12.75;8.00
62599;PMS7003;48671;48.922;2.346;2023-11-21T06:52:24;21.00;13.25;9.75
62599;PMS7003;48671;48.922;2.346;2023-11-21T06:54:49;14.00;11.75;8.00
62599;PMS7003;48671;48.922;2.346;2023-11-21T06:57:15;12.25;12.00;8.00
62599;PMS7003;48671;48.922;2.346;2023-11-21T06:59:40;13.00;11.00;7.00
62599;PMS7003;48671;48.922;2.346;2023-11-21T07:02:06;10.25;7.75;4.25
62599;PMS7003;48671;48.922;2.346;2023-11-21T07:04:37;15.50;10.50;6.50
62599;PMS7003;48671;48.922;2.346;2023-11-21T07:07:03;11.00;8.50;7.50
62599;PMS7003;48671;48.922;2.346;2023-11-21T07:09:29;12.50;10.50;7.00
62599;PMS7003;48671;48.922;2.346;2023-11-21T07:11:55;13.75;11.75;7.00
62599;PMS7003;48671;48.922;2.346;2023-11-21T07:14:21;12.75;11.75;8.50
62599;PMS7003;48671;48.922;2.346;2023-11-21T07:16:46;12.00;10.25;7.50
62599;PMS7003;48671;48.922;2.346;2023-11-21T07:19:12;15.00;10.00;7.00
62599;PMS7003;48671;48.922;2.346;2023-11-21T07:21:38;12.75;9.75;6.50
62599;PMS7003;48671;48.922;2.346;2023-11-21T07:24:04;15.75;8.50;6.75
62599;PMS7003;48671;48.922;2.346;2023-11-21T07:26:31;13.25;11.50;7.75
62599;PMS7003;48671;48.922;2.346;2023-11-21T07:28:57;11.00;8.75;5.50
62599;PMS7003;48671;48.922;2.346;2023-11-21T07:31:22;14.50;11.25;8.00
62599;PMS7003;48671;48.922;2.346;2023-11-21T07:33:49;17.50;11.50;6.75
62599;PMS7003;48671;48.922;2.346;2023-11-21T07:36:15;16.50;12.25;7.00
62599;PMS7003;48671;48.922;2.346;2023-11-21T07:38:41;12.00;11.00;7.50
62599;PMS7003;48671;48.922;2.346;2023-11-21T07:41:07;12.00;9.50;8.00
62599;PMS7003;48671;48.922;2.346;2023-11-21T07:43:34;16.00;11.00;7.00
62599;PMS7003;48671;48.922;2.346;2023-11-21T07:46:03;12.00;9.00;7.00
62599;PMS7003;48671;48.922;2.346;2023-11-21T07:48:29;13.75;12.00;7.50
62599;PMS7003;48671;48.922;2.346;2023-11-21T07:50:56;9.00;9.00;6.00
62599;PMS7003;48671;48.922;2.346;2023-11-21T07:53:25;9.50;9.50;6.25
62599;PMS7003;48671;48.922;2.346;2023-11-21T07:55:50;12.75;12.50;7.75
62599;PMS7003;48671;48.922;2.346;2023-11-21T07:58:17;16.00;14.25;8.00
62599;PMS7003;48671;48.922;2.346;2023-11-21T08:00:42;12.75;11.00;7.00
62599;PMS7003;48671;48.922;2.346;2023-11-21T08:03:07;19.25;12.75;10.00
62599;PMS7003;48671;48.922;2.346;2023-11-21T08:05:33;14.00;12.25;9.75
62599;PMS7003;48671;48.922;2.346;2023-11-21T08:07:58;16.33;15.00;11.00
62599;PMS7003;48671;48.922;2.346;2023-11-21T08:10:23;15.00;12.25;7.50
62599;PMS7003;48671;48.922;2.346;2023-11-21T08:12:49;26.25;15.50;12.50
62599;PMS7003;48671;48.922;2.346;2023-11-21T08:15:16;17.25;13.75;9.50
62599;PMS7003;48671;48.922;2.346;2023-11-21T08:17:41;17.75;15.75;11.00
62599;PMS7003;48671;48.922;2.346;2023-11-21T08:20:07;20.67;14.33;9.33
62599;PMS7003;48671;48.922;2.346;2023-11-21T08:22:33;20.25;13.00;9.25
62599;PMS7003;48671;48.922;2.346;2023-11-21T08:24:59;30.25;20.75;15.25
62599;PMS7003;48671;48.922;2.346;2023-11-21T08:27:25;18.50;15.25;10.00
62599;PMS7003;48671;48.922;2.346;2023-11-21T08:29:50;21.33;18.67;12.00
62599;PMS7003;48671;48.922;2.346;2023-11-21T08:32:17;13.75;12.50;8.75
62599;PMS7003;48671;48.922;2.346;2023-11-21T08:34:42;25.00;15.75;11.00
62599;PMS7003;48671;48.922;2.346;2023-11-21T08:37:09;18.00;13.75;10.00
62599;PMS7003;48671;48.922;2.346;2023-11-21T08:39:36;19.50;10.75;9.25
62599;PMS7003;48671;48.922;2.346;2023-11-21T08:42:02;13.00;10.50;6.00
62599;PMS7003;48671;48.922;2.346;2023-11-21T08:44:28;16.00;11.25;8.00
62599;PMS7003;48671;48.922;2.346;2023-11-21T08:46:53;10.67;10.00;6.00
62599;PMS7003;48671;48.922;2.346;2023-11-21T08:49:19;20.67;13.33;11.00
62599;PMS7003;48671;48.922;2.346;2023-11-21T08:51:44;19.33;15.33;10.33
62599;PMS7003;48671;48.922;2.346;2023-11-21T08:54:10;18.00;12.75;8.25
62599;PMS7003;48671;48.922;2.346;2023-11-21T08:56:36;17.00;11.00;7.00
62599;PMS7003;48671;48.922;2.346;2023-11-21T08:59:02;21.75;17.25;12.00
62599;PMS7003;48671;48.922;2.346;2023-11-21T09:01:30;18.50;14.50;9.25
62599;PMS7003;48671;48.922;2.346;2023-11-21T09:03:56;18.50;15.00;10.00
62599;PMS7003;48671;48.922;2.346;2023-11-21T09:06:22;17.00;15.00;11.00
62599;PMS7003;48671;48.922;2.346;2023-11-21T09:08:49;14.50;13.25;8.00
62599;PMS7003;48671;48.922;2.346;2023-11-21T09:11:14;16.50;13.75;8.00
62599;PMS7003;48671;48.922;2.346;2023-11-21T09:13:39;20.33;16.00;11.00
62599;PMS7003;48671;48.922;2.346;2023-11-21T09:16:05;21.33;21.00;14.33
62599;PMS7003;48671;48.922;2.346;2023-11-21T09:18:31;20.50;15.25;11.50
62599;PMS7003;48671;48.922;2.346;2023-11-21T09:20:56;20.75;15.75;11.00
62599;PMS7003;48671;48.922;2.346;2023-11-21T09:23:21;14.75;12.00;8.00
62599;PMS7003;48671;48.922;2.346;2023-11-21T09:25:47;17.00;13.75;11.00
62599;PMS7003;48671;48.922;2.346;2023-11-21T09:28:14;13.00;12.00;8.50
62599;PMS7003;48671;48.922;2.346;2023-11-21T09:30:40;14.75;13.25;8.50
62599;PMS7003;48671;48.922;2.346;2023-11-21T09:33:05;11.50;9.75;8.00
62599;PMS7003;48671;48.922;2.346;2023-11-21T09:35:31;11.75;9.50;7.00
62599;PMS7003;48671;48.922;2.346;2023-11-21T09:37:57;16.50;9.00;6.00
62599;PMS7003;48671;48.922;2.346;2023-11-21T09:40:22;7.00;7.00;6.00
62599;PMS7003;48671;48.922;2.346;2023-11-21T09:42:57;13.50;11.25;7.00
62599;PMS7003;48671;48.922;2.346;2023-11-21T09:47:53;8.75;8.00;6.00
62599;PMS7003;48671;48.922;2.346;2023-11-21T09:50:20;17.75;12.50;8.00
62599;PMS7003;48671;48.922;2.346;2023-11-21T09:55:27;8.00;8.00;6.50
62599;PMS7003;48671;48.922;2.346;2023-11-21T09:58:00;7.25;7.25;3.75
62599;PMS7003;48671;48.922;2.346;2023-11-21T10:00:27;8.00;8.00;7.00
62599;PMS7003;48671;48.922;2.346;2023-11-21T10:02:57;7.25;6.00;3.75
62599;PMS7003;48671;48.922;2.346;2023-11-21T10:05:23;10.50;6.75;5.00
62599;PMS7003;48671;48.922;2.346;2023-11-21T10:07:49;7.25;7.00;3.50
62599;PMS7003;48671;48.922;2.346;2023-11-21T10:10:15;9.00;7.00;5.50
62599;PMS7003;48671;48.922;2.346;2023-11-21T10:12:45;8.25;7.00;5.50
62599;PMS7003;48671;48.922;2.346;2023-11-21T10:15:16;7.25;6.50;4.50
62599;PMS7003;48671;48.922;2.346;2023-11-21T10:17:41;7.00;7.00;3.50
62599;PMS7003;48671;48.922;2.346;2023-11-21T10:20:13;29.50;14.50;8.00
62599;PMS7003;48671;48.922;2.346;2023-11-21T10:22:42;12.75;10.75;6.75
62599;PMS7003;48671;48.922;2.346;2023-11-21T10:25:08;14.00;8.50;7.00
62599;PMS7003;48671;48.922;2.346;2023-11-21T10:27:35;16.25;12.50;7.25
62599;PMS7003;48671;48.922;2.346;2023-11-21T10:30:02;10.50;8.00;5.50
62599;PMS7003;48671;48.922;2.346;2023-11-21T10:32:29;10.75;6.75;5.00
62599;PMS7003;48671;48.922;2.346;2023-11-21T10:34:58;78.00;47.75;21.75
62599;PMS7003;48671;48.922;2.346;2023-11-21T10:37:31;23.25;14.25;9.00
62599;PMS7003;48671;48.922;2.346;2023-11-21T10:39:57;12.75;9.00;6.50
62599;PMS7003;48671;48.922;2.346;2023-11-21T10:42:25;8.00;7.00;6.00
62599;PMS7003;48671;48.922;2.346;2023-11-21T10:44:52;14.50;7.50;6.00
62599;PMS7003;48671;48.922;2.346;2023-11-21T10:47:18;7.00;7.00;4.00
62599;PMS7003;48671;48.922;2.346;2023-11-21T10:49:44;7.75;4.00;3.00
62599;PMS7003;48671;48.922;2.346;2023-11-21T10:52:13;8.25;6.50;3.75
62599;PMS7003;48671;48.922;2.346;2023-11-21T10:54:42;3.00;3.00;2.50
62599;PMS7003;48671;48.922;2.346;2023-11-21T10:57:08;4.50;3.50;3.00
62599;PMS7003;48671;48.922;2.346;2023-11-21T10:59:36;3.00;3.00;3.00
62599;PMS7003;48671;48.922;2.346;2023-11-21T11:02:09;6.25;3.00;1.75
62599;PMS7003;48671;48.922;2.346;2023-11-21T11:04:50;2.00;2.00;2.00
62599;PMS7003;48671;48.922;2.346;2023-11-21T11:07:17;2.00;2.00;2.00
62599;PMS7003;48671;48.922;2.346;2023-11-21T11:09:45;7.25;3.25;1.75
62599;PMS7003;48671;48.922;2.346;2023-11-21T11:12:12;6.25;3.00;2.50
62599;PMS7003;48671;48.922;2.346;2023-11-21T11:14:40;3.75;3.00;2.75
62599;PMS7003;48671;48.922;2.346;2023-11-21T11:17:06;3.25;3.25;2.00
62599;PMS7003;48671;48.922;2.346;2023-11-21T11:19:33;2.00;2.00;2.00
62599;PMS7003;48671;48.922;2.346;2023-11-21T11:27:19;2.00;2.00;2.00
62599;PMS7003;48671;48.922;2.346;2023-11-21T11:36:18;2.50;2.00;2.00
62599;PMS7003;48671;48.922;2.346;2023-11-21T11:38:50;2.50;2.50;2.00
62599;PMS7003;48671;48.922;2.346;2023-11-21T11:41:30;3.75;2.00;1.25
62599;PMS7003;48671;48.922;2.346;2023-11-21T11:43:59;3.00;3.00;2.00
62599;PMS7003;48671;48.922;2.346;2023-11-21T11:46:43;6.00;4.00;2.00
62599;PMS7003;48671;48.922;2.346;2023-11-21T11:49:24;5.75;3.00;2.00
62599;PMS7003;48671;48.922;2.346;2023-11-21T11:54:55;2.00;2.00;1.50
62599;PMS7003;48671;48.922;2.346;2023-11-21T11:57:24;3.25;2.25;2.00
62599;PMS7003;48671;48.922;2.346;2023-11-21T12:00:08;2.25;2.25;2.00
62599;PMS7003;48671;48.922;2.346;2023-11-21T12:02:42;2.75;2.25;2.00
62599;PMS7003;48671;48.922;2.346;2023-11-21T12:05:10;4.00;4.00;4.00
62599;PMS7003;48671;48.922;2.346;2023-11-21T12:07:43;3.00;3.00;2.00
62599;PMS7003;48671;48.922;2.346;2023-11-21T12:10:11;4.25;3.00;2.00
62599;PMS7003;48671;48.922;2.346;2023-11-21T12:12:43;3.00;3.00;2.00
62599;PMS7003;48671;48.922;2.346;2023-11-21T12:15:10;1.25;1.25;1.00
62599;PMS7003;48671;48.922;2.346;2023-11-21T12:17:36;3.00;2.75;2.00
62599;PMS7003;48671;48.922;2.346;2023-11-21T12:20:03;6.00;3.50;2.00
62599;PMS7003;48671;48.922;2.346;2023-11-21T12:22:30;2.25;2.00;2.00
62599;PMS7003;48671;48.922;2.346;2023-11-21T12:24:56;3.00;1.50;1.00
62599;PMS7003;48671;48.922;2.346;2023-11-21T12:27:22;2.25;2.25;1.50
62599;PMS7003;48671;48.922;2.346;2023-11-21T12:29:47;6.50;3.00;2.00
62599;PMS7003;48671;48.922;2.346;2023-11-21T12:32:12;4.75;3.00;2.00
62599;PMS7003;48671;48.922;2.346;2023-11-21T12:34:40;3.00;3.00;2.75
62599;PMS7003;48671;48.922;2.346;2023-11-21T12:37:05;6.00;4.00;3.00
62599;PMS7003;48671;48.922;2.346;2023-11-21T12:39:31;7.50;5.25;3.00
62599;PMS7003;48671;48.922;2.346;2023-11-21T12:41:56;3.00;3.00;2.00
62599;PMS7003;48671;48.922;2.346;2023-11-21T12:44:22;6.75;3.75;2.00
62599;PMS7003;48671;48.922;2.346;2023-11-21T12:46:49;7.00;4.00;3.25
62599;PMS7003;48671;48.922;2.346;2023-11-21T12:49:15;6.00;5.50;4.00
62599;PMS7003;48671;48.922;2.346;2023-11-21T12:51:44;3.00;1.75;1.75
62599;PMS7003;48671;48.922;2.346;2023-11-21T12:54:11;4.25;3.00;2.00
62599;PMS7003;48671;48.922;2.346;2023-11-21T12:56:40;4.00;4.00;2.50
62599;PMS7003;48671;48.922;2.346;2023-11-21T12:59:05;2.00;2.00;1.75
62599;PMS7003;48671;48.922;2.346;2023-11-21T13:01:31;3.25;3.00;2.00
62599;PMS7003;48671;48.922;2.346;2023-11-21T13:03:59;8.00;3.25;2.25
62599;PMS7003;48671;48.922;2.346;2023-11-21T13:06:25;4.25;2.25;2.00
62599;PMS7003;48671;48.922;2.346;2023-11-21T13:08:51;2.00;2.00;1.25
62599;PMS7003;48671;48.922;2.346;2023-11-21T13:11:16;2.00;2.00;1.50
62599;PMS7003;48671;48.922;2.346;2023-11-21T13:13:43;7.75;5.75;4.00
62599;PMS7003;48671;48.922;2.346;2023-11-21T13:16:08;6.00;6.00;4.00
62599;PMS7003;48671;48.922;2.346;2023-11-21T13:18:35;8.00;5.75;2.50
62599;PMS7003;48671;48.922;2.346;2023-11-21T13:21:04;6.75;3.25;3.00
62599;PMS7003;48671;48.922;2.346;2023-11-21T13:23:35;2.75;0.75;0.00
62599;PMS7003;48671;48.922;2.346;2023-11-21T13:26:04;2.75;2.75;2.75
62599;PMS7003;48671;48.922;2.346;2023-11-21T13:28:30;2.50;2.50;2.00
62599;PMS7003;48671;48.922;2.346;2023-11-21T13:30:59;3.00;3.00;2.50
62599;PMS7003;48671;48.922;2.346;2023-11-21T13:33:34;2.00;2.00;1.00
62599;PMS7003;48671;48.922;2.346;2023-11-21T13:36:02;2.75;2.75;2.00
62599;PMS7003;48671;48.922;2.346;2023-11-21T13:38:32;2.75;2.75;2.00
62599;PMS7003;48671;48.922;2.346;2023-11-21T13:40:59;6.00;6.00;3.00
62599;PMS7003;48671;48.922;2.346;2023-11-21T13:43:25;4.25;4.25;3.00
62599;PMS7003;48671;48.922;2.346;2023-11-21T13:45:51;5.25;3.00;2.75
62599;PMS7003;48671;48.922;2.346;2023-11-21T13:48:25;6.50;3.00;2.00
62599;PMS7003;48671;48.922;2.346;2023-11-21T13:50:56;3.00;3.00;2.00
62599;PMS7003;48671;48.922;2.346;2023-11-21T13:53:33;4.50;2.75;2.00
62599;PMS7003;48671;48.922;2.346;2023-11-21T13:56:01;4.00;2.25;2.00
62599;PMS7003;48671;48.922;2.346;2023-11-21T13:58:26;3.50;3.50;3.00
62599;PMS7003;48671;48.922;2.346;2023-11-21T14:01:15;7.75;3.50;3.00
62599;PMS7003;48671;48.922;2.346;2023-11-21T14:04:04;3.75;3.25;2.25
62599;PMS7003;48671;48.922;2.346;2023-11-21T14:06:56;8.50;6.25;4.00
62599;PMS7003;48671;48.922;2.346;2023-11-21T14:09:22;4.00;3.50;2.00
62599;PMS7003;48671;48.922;2.346;2023-11-21T14:11:53;2.75;2.75;2.00
62599;PMS7003;48671;48.922;2.346;2023-11-21T14:14:23;3.25;2.75;2.00
62599;PMS7003;48671;48.922;2.346;2023-11-21T14:16:50;3.00;2.00;2.00
62599;PMS7003;48671;48.922;2.346;2023-11-21T14:19:16;1.25;1.25;1.00
62599;PMS7003;48671;48.922;2.346;2023-11-21T14:21:42;3.25;3.00;2.00
62599;PMS7003;48671;48.922;2.346;2023-11-21T14:24:08;4.75;4.75;3.75
62599;PMS7003;48671;48.922;2.346;2023-11-21T14:26:34;3.00;3.00;2.00